createdAt,value
2018-02-08T00:00:50.619Z,90.16
2018-02-08T00:01:50.436Z,89.97
2018-02-08T00:02:50.532Z,89.97
2018-02-08T00:03:50.379Z,90.07
2018-02-08T00:04:50.442Z,89.40
2018-02-08T00:05:50.305Z,90.35
2018-02-08T00:06:50.456Z,89.59
2018-02-08T00:07:50.239Z,89.78
2018-02-08T00:08:50.368Z,89.59
2018-02-08T00:09:50.172Z,89.69
2018-02-08T00:10:50.281Z,89.03
2018-02-08T00:11:50.106Z,88.46
2018-02-08T00:12:50.191Z,88.28
2018-02-08T00:13:50.040Z,88.37
2018-02-08T00:14:50.205Z,88.65
2018-02-08T00:15:49.974Z,88.93
2018-02-08T00:16:50.115Z,89.31
2018-02-08T00:17:49.910Z,89.12
2018-02-08T00:18:50.027Z,89.31
2018-02-08T00:19:50.714Z,89.22
2018-02-08T00:20:49.939Z,89.31
2018-02-08T00:21:49.776Z,89.97
2018-02-08T00:22:49.982Z,90.54
2018-02-08T00:23:49.711Z,90.54
2018-02-08T00:24:50.713Z,90.07
2018-02-08T00:25:49.646Z,89.88
2018-02-08T00:26:49.777Z,89.69
2018-02-08T00:27:49.582Z,89.59
2018-02-08T00:28:49.688Z,90.07
2018-02-08T00:29:49.511Z,90.16
2018-02-08T00:30:49.596Z,89.97
2018-02-08T00:31:49.443Z,89.40
2018-02-08T00:32:49.613Z,89.50
2018-02-08T00:33:49.380Z,89.22
2018-02-08T00:34:49.524Z,89.40
2018-02-08T00:35:49.310Z,89.31
2018-02-08T00:36:49.332Z,88.93
2018-02-08T00:37:49.247Z,88.84
2018-02-08T00:38:49.243Z,89.31
2018-02-08T00:39:49.177Z,89.31
2018-02-08T00:40:49.257Z,89.31
2018-02-08T00:41:49.111Z,89.03
2018-02-08T00:42:49.172Z,89.97
2018-02-08T00:43:49.048Z,90.07
2018-02-08T00:44:49.080Z,89.97
2018-02-08T00:45:48.979Z,89.97
2018-02-08T00:46:48.993Z,90.26
2018-02-08T00:47:48.911Z,89.31
2018-02-08T00:48:49.006Z,89.40
2018-02-08T00:49:48.847Z,89.12
2018-02-08T00:50:48.921Z,89.12
2018-02-08T00:51:48.782Z,89.22
2018-02-08T00:52:48.830Z,89.40
2018-02-08T00:53:48.715Z,89.97
2018-02-08T00:54:48.758Z,90.07
2018-02-08T00:55:48.648Z,90.07
2018-02-08T00:56:48.652Z,89.31
2018-02-08T00:57:48.579Z,90.07
2018-02-08T00:58:48.665Z,89.74
2018-02-08T00:59:48.513Z,90.31
2018-02-08T01:00:48.583Z,89.45
2018-02-08T01:01:48.449Z,90.50
2018-02-08T01:02:48.494Z,90.59
2018-02-08T01:03:48.379Z,90.31
2018-02-08T01:04:48.401Z,90.16
2018-02-08T01:05:48.316Z,90.87
2018-02-08T01:06:48.417Z,90.59
2018-02-08T01:07:48.248Z,90.50
2018-02-08T01:08:48.326Z,90.12
2018-02-08T01:09:48.184Z,90.07
2018-02-08T01:10:48.241Z,90.50
2018-02-08T01:11:48.113Z,90.40
2018-02-08T01:12:48.149Z,90.59
2018-02-08T01:13:48.052Z,90.78
2018-02-08T01:14:48.061Z,90.87
2018-02-08T01:15:47.981Z,91.16
2018-02-08T01:16:48.074Z,90.64
2018-02-08T01:17:47.913Z,91.49
2018-02-08T01:18:47.985Z,91.25
2018-02-08T01:19:47.849Z,91.25
2018-02-08T01:20:47.898Z,91.44
2018-02-08T01:21:47.778Z,91.72
2018-02-08T01:22:47.807Z,91.72
2018-02-08T01:23:47.713Z,91.44
2018-02-08T01:24:47.822Z,91.82
2018-02-08T01:25:47.647Z,92.00
2018-02-08T01:26:47.737Z,91.44
2018-02-08T01:27:47.580Z,91.53
2018-02-08T01:28:47.646Z,91.44
2018-02-08T01:29:47.515Z,91.44
2018-02-08T01:30:47.557Z,91.44
2018-02-08T01:31:47.446Z,91.06
2018-02-08T01:32:47.573Z,91.63
2018-02-08T01:33:47.381Z,91.82
2018-02-08T01:34:47.482Z,92.19
2018-02-08T01:35:47.310Z,92.57
2018-02-08T01:36:47.394Z,92.66
2018-02-08T01:37:47.246Z,92.19
2018-02-08T01:38:47.306Z,92.47
2018-02-08T01:39:47.176Z,92.38
2018-02-08T01:40:47.216Z,92.00
2018-02-08T01:41:47.112Z,92.47
2018-02-08T01:42:47.231Z,92.00
2018-02-08T01:43:47.044Z,91.91
2018-02-08T01:44:47.144Z,92.19
2018-02-08T01:45:46.975Z,92.38
2018-02-08T01:46:47.055Z,92.19
2018-02-08T01:47:46.907Z,92.29
2018-02-08T01:48:46.965Z,92.47
2018-02-08T01:49:46.843Z,93.04
2018-02-08T01:50:46.877Z,92.66
2018-02-08T01:51:46.772Z,92.95
2018-02-08T01:52:46.891Z,92.95
2018-02-08T01:53:46.707Z,92.95
2018-02-08T01:54:46.802Z,93.13
2018-02-08T01:55:46.641Z,93.23
2018-02-08T01:56:46.713Z,93.04
2018-02-08T01:57:46.575Z,93.04
2018-02-08T01:58:46.626Z,93.13
2018-02-08T01:59:46.506Z,93.23
2018-02-08T02:00:46.640Z,93.23
2018-02-08T02:01:46.437Z,93.13
2018-02-08T02:02:46.549Z,93.04
2018-02-08T02:03:46.372Z,93.42
2018-02-08T02:04:46.461Z,93.42
2018-02-08T02:05:46.305Z,93.42
2018-02-08T02:06:46.373Z,92.85
2018-02-08T02:07:46.234Z,92.95
2018-02-08T02:08:46.389Z,92.85
2018-02-08T02:09:46.172Z,92.95
2018-02-08T02:10:46.302Z,93.04
2018-02-08T02:11:46.101Z,93.23
2018-02-08T02:12:46.213Z,93.23
2018-02-08T02:13:46.037Z,92.95
2018-02-08T02:14:46.123Z,92.47
2018-02-08T02:15:45.966Z,92.76
2018-02-08T02:16:46.034Z,92.47
2018-02-08T02:17:45.898Z,92.29
2018-02-08T02:18:46.048Z,92.57
2018-02-08T02:19:45.833Z,92.00
2018-02-08T02:20:45.957Z,92.19
2018-02-08T02:21:45.769Z,92.57
2018-02-08T02:22:45.869Z,92.57
2018-02-08T02:23:45.698Z,93.23
2018-02-08T02:24:45.784Z,93.13
2018-02-08T02:25:45.633Z,93.13
2018-02-08T02:26:45.692Z,93.04
2018-02-08T02:27:45.560Z,93.13
2018-02-08T02:28:45.706Z,92.66
2018-02-08T02:29:45.492Z,93.04
2018-02-08T02:30:45.618Z,92.47
2018-02-08T02:31:45.427Z,92.57
2018-02-08T02:32:45.531Z,92.57
2018-02-08T02:33:45.372Z,92.29
2018-02-08T02:34:45.443Z,92.76
2018-02-08T02:35:45.292Z,92.47
2018-02-08T02:36:45.455Z,92.47
2018-02-08T02:37:45.224Z,92.57
2018-02-08T02:38:45.370Z,92.95
2018-02-08T02:39:45.155Z,93.13
2018-02-08T02:40:45.279Z,93.04
2018-02-08T02:41:45.086Z,93.13
2018-02-08T02:42:45.188Z,93.04
2018-02-08T02:43:45.021Z,93.32
2018-02-08T02:44:45.102Z,92.85
2018-02-08T02:45:44.953Z,93.32
2018-02-08T02:46:45.116Z,93.13
2018-02-08T02:47:44.893Z,93.42
2018-02-08T02:48:45.028Z,93.80
2018-02-08T02:49:44.815Z,93.70
2018-02-08T02:50:44.938Z,93.99
2018-02-08T02:51:44.751Z,93.80
2018-02-08T02:52:44.850Z,93.80
2018-02-08T02:53:44.684Z,93.89
2018-02-08T02:54:44.865Z,93.70
2018-02-08T02:55:44.615Z,93.70
2018-02-08T02:56:44.776Z,93.51
2018-02-08T02:57:44.550Z,93.42
2018-02-08T02:58:44.688Z,93.32
2018-02-08T02:59:44.478Z,93.70
2018-02-08T03:00:44.601Z,93.70
2018-02-08T03:01:44.410Z,93.70
2018-02-08T03:02:44.512Z,93.70
2018-02-08T03:03:44.344Z,93.42
2018-02-08T03:04:44.421Z,92.85
2018-02-08T03:05:44.275Z,93.51
2018-02-08T03:06:44.332Z,93.61
2018-02-08T03:07:44.206Z,93.80
2018-02-08T03:08:44.247Z,93.99
2018-02-08T03:09:44.140Z,93.99
2018-02-08T03:10:44.153Z,93.80
2018-02-08T03:11:44.070Z,93.23
2018-02-08T03:12:44.069Z,93.04
2018-02-08T03:13:44.003Z,93.23
2018-02-08T03:14:44.079Z,93.89
2018-02-08T03:15:43.936Z,93.70
2018-02-08T03:16:43.994Z,93.99
2018-02-08T03:17:43.867Z,93.70
2018-02-08T03:18:43.904Z,93.99
2018-02-08T03:19:43.799Z,93.70
2018-02-08T03:20:43.815Z,93.80
2018-02-08T03:21:43.731Z,93.61
2018-02-08T03:22:43.830Z,93.13
2018-02-08T03:23:43.667Z,93.23
2018-02-08T03:24:43.739Z,93.13
2018-02-08T03:25:43.595Z,93.13
2018-02-08T03:26:43.651Z,93.70
2018-02-08T03:27:43.525Z,93.70
2018-02-08T03:28:43.564Z,93.80
2018-02-08T03:29:43.458Z,93.89
2018-02-08T03:30:43.477Z,94.08
2018-02-08T03:31:43.391Z,94.46
2018-02-08T03:32:43.489Z,94.36
2018-02-08T03:33:43.322Z,94.36
2018-02-08T03:34:43.403Z,94.18
2018-02-08T03:35:43.255Z,94.08
2018-02-08T03:36:43.313Z,93.99
2018-02-08T03:37:43.185Z,93.61
2018-02-08T03:38:43.224Z,93.99
2018-02-08T03:39:43.117Z,93.89
2018-02-08T03:40:43.138Z,94.08
2018-02-08T03:41:43.050Z,93.70
2018-02-08T03:42:43.151Z,93.70
2018-02-08T03:43:42.984Z,93.99
2018-02-08T03:44:43.060Z,93.70
2018-02-08T03:45:42.914Z,93.70
2018-02-08T03:46:42.972Z,94.36
2018-02-08T03:47:42.844Z,94.18
2018-02-08T03:48:42.886Z,93.70
2018-02-08T03:49:42.778Z,93.89
2018-02-08T03:50:42.793Z,94.36
2018-02-08T03:51:42.708Z,94.08
2018-02-08T03:52:42.808Z,94.27
2018-02-08T03:53:42.640Z,94.27
2018-02-08T03:54:42.721Z,94.36
2018-02-08T03:55:42.570Z,94.27
2018-02-08T03:56:42.632Z,94.46
2018-02-08T03:57:42.502Z,94.55
2018-02-08T03:58:42.544Z,94.55
2018-02-08T03:59:42.433Z,94.46
2018-02-08T04:00:42.557Z,94.93
2018-02-08T04:01:42.367Z,95.03
2018-02-08T04:02:42.471Z,94.93
2018-02-08T04:03:42.300Z,94.74
2018-02-08T04:04:42.382Z,94.84
2018-02-08T04:05:42.230Z,94.93
2018-02-08T04:06:42.298Z,94.55
2018-02-08T04:07:42.168Z,94.46
2018-02-08T04:08:42.207Z,94.27
2018-02-08T04:09:42.096Z,94.18
2018-02-08T04:10:42.218Z,94.18
2018-02-08T04:11:42.023Z,94.27
2018-02-08T04:12:42.130Z,94.65
2018-02-08T04:13:41.957Z,94.65
2018-02-08T04:14:42.040Z,94.08
2018-02-08T04:15:41.889Z,94.55
2018-02-08T04:16:41.954Z,94.93
2018-02-08T04:17:41.819Z,95.12
2018-02-08T04:18:41.866Z,94.79
2018-02-08T04:19:41.749Z,94.84
2018-02-08T04:20:41.878Z,94.93
2018-02-08T04:21:41.684Z,94.84
2018-02-08T04:22:41.788Z,94.84
2018-02-08T04:23:41.612Z,95.03
2018-02-08T04:24:41.700Z,94.84
2018-02-08T04:25:41.547Z,94.41
2018-02-08T04:26:41.613Z,94.51
2018-02-08T04:27:41.476Z,94.22
2018-02-08T04:28:41.521Z,94.22
2018-02-08T04:29:41.408Z,94.22
2018-02-08T04:30:41.540Z,94.74
2018-02-08T04:31:41.341Z,94.51
2018-02-08T04:32:41.450Z,94.03
2018-02-08T04:33:41.277Z,94.32
2018-02-08T04:34:41.360Z,94.69
2018-02-08T04:35:41.202Z,94.41
2018-02-08T04:36:41.272Z,94.32
2018-02-08T04:37:41.133Z,95.07
2018-02-08T04:38:41.183Z,95.07
2018-02-08T04:39:41.063Z,94.79
2018-02-08T04:40:41.196Z,94.79
2018-02-08T04:41:40.993Z,94.79
2018-02-08T04:42:41.108Z,94.79
2018-02-08T04:43:40.925Z,95.07
2018-02-08T04:44:41.021Z,94.32
2018-02-08T04:45:40.859Z,94.88
2018-02-08T04:46:40.930Z,94.98
2018-02-08T04:47:40.790Z,94.88
2018-02-08T04:48:40.945Z,94.88
2018-02-08T04:49:40.721Z,94.69
2018-02-08T04:50:40.857Z,95.45
2018-02-08T04:51:40.649Z,95.07
2018-02-08T04:52:40.768Z,95.07
2018-02-08T04:53:40.582Z,95.64
2018-02-08T04:54:40.681Z,95.31
2018-02-08T04:55:40.516Z,95.73
2018-02-08T04:56:40.591Z,95.87
2018-02-08T04:57:40.446Z,95.73
2018-02-08T04:58:40.606Z,95.64
2018-02-08T04:59:40.375Z,95.50
2018-02-08T05:00:40.516Z,95.07
2018-02-08T05:01:40.307Z,95.17
2018-02-08T05:02:40.429Z,95.12
2018-02-08T05:03:40.237Z,95.36
2018-02-08T05:04:40.338Z,94.88
2018-02-08T05:05:40.171Z,94.84
2018-02-08T05:06:40.250Z,95.50
2018-02-08T05:07:40.102Z,95.54
2018-02-08T05:08:40.266Z,95.07
2018-02-08T05:09:40.032Z,94.98
2018-02-08T05:10:40.176Z,94.79
2018-02-08T05:11:39.964Z,94.88
2018-02-08T05:12:40.088Z,95.17
2018-02-08T05:13:39.893Z,94.88
2018-02-08T05:14:39.999Z,95.36
2018-02-08T05:15:39.825Z,95.26
2018-02-08T05:16:39.913Z,95.07
2018-02-08T05:17:39.765Z,95.17
2018-02-08T05:18:39.925Z,95.40
2018-02-08T05:19:39.686Z,95.26
2018-02-08T05:20:39.836Z,95.07
2018-02-08T05:21:39.618Z,94.79
2018-02-08T05:22:39.754Z,94.88
2018-02-08T05:23:39.548Z,95.07
2018-02-08T05:24:39.658Z,95.17
2018-02-08T05:25:39.482Z,94.79
2018-02-08T05:26:39.569Z,95.07
2018-02-08T05:27:39.411Z,95.64
2018-02-08T05:28:39.582Z,95.54
2018-02-08T05:29:39.341Z,95.17
2018-02-08T05:30:39.496Z,95.45
2018-02-08T05:31:39.274Z,95.26
2018-02-08T05:32:39.307Z,94.88
2018-02-08T05:33:39.207Z,94.88
2018-02-08T05:34:39.218Z,95.17
2018-02-08T05:35:39.135Z,95.36
2018-02-08T05:36:39.117Z,94.88
2018-02-08T05:37:39.124Z,95.17
2018-02-08T05:38:39.031Z,95.83
2018-02-08T05:39:39.033Z,95.36
2018-02-08T05:40:38.963Z,95.36
2018-02-08T05:41:38.944Z,95.83
2018-02-08T05:42:38.909Z,95.92
2018-02-08T05:43:38.858Z,95.92
2018-02-08T05:44:38.864Z,95.83
2018-02-08T05:45:38.791Z,95.64
2018-02-08T05:46:38.770Z,95.45
2018-02-08T05:47:38.721Z,95.17
2018-02-08T05:48:38.787Z,95.26
2018-02-08T05:49:38.653Z,95.26
2018-02-08T05:50:38.691Z,95.07
2018-02-08T05:51:38.585Z,94.32
2018-02-08T05:52:38.604Z,94.98
2018-02-08T05:53:38.516Z,94.69
2018-02-08T05:54:38.512Z,95.45
2018-02-08T05:55:38.446Z,95.17
2018-02-08T05:56:38.423Z,95.07
2018-02-08T05:57:38.375Z,95.07
2018-02-08T05:58:38.436Z,95.07
2018-02-08T05:59:38.306Z,94.98
2018-02-08T06:00:38.343Z,95.45
2018-02-08T06:01:38.238Z,95.45
2018-02-08T06:02:38.255Z,95.07
2018-02-08T06:03:38.171Z,95.07
2018-02-08T06:04:38.167Z,95.45
2018-02-08T06:05:38.099Z,95.64
2018-02-08T06:06:38.178Z,95.73
2018-02-08T06:07:38.032Z,95.92
2018-02-08T06:08:38.089Z,95.64
2018-02-08T06:09:37.962Z,95.83
2018-02-08T06:10:38.002Z,95.64
2018-02-08T06:11:37.894Z,95.92
2018-02-08T06:12:37.910Z,96.30
2018-02-08T06:13:37.824Z,96.20
2018-02-08T06:14:37.820Z,96.58
2018-02-08T06:15:37.757Z,96.67
2018-02-08T06:16:37.833Z,96.77
2018-02-08T06:17:37.685Z,96.67
2018-02-08T06:18:37.745Z,96.67
2018-02-08T06:19:37.618Z,96.11
2018-02-08T06:20:37.653Z,96.48
2018-02-08T06:21:37.551Z,97.52
2018-02-08T06:22:37.563Z,97.90
2018-02-08T06:23:37.480Z,97.71
2018-02-08T06:24:37.474Z,97.80
2018-02-08T06:25:37.409Z,97.80
2018-02-08T06:26:37.483Z,97.80
2018-02-08T06:27:37.340Z,97.61
2018-02-08T06:28:37.397Z,97.33
2018-02-08T06:29:37.272Z,97.14
2018-02-08T06:30:37.324Z,97.05
2018-02-08T06:31:37.206Z,96.67
2018-02-08T06:32:37.217Z,97.24
2018-02-08T06:33:37.129Z,97.71
2018-02-08T06:34:37.124Z,97.76
2018-02-08T06:35:37.062Z,97.76
2018-02-08T06:36:37.144Z,97.95
2018-02-08T06:37:36.996Z,97.67
2018-02-08T06:38:37.046Z,97.76
2018-02-08T06:39:36.922Z,97.76
2018-02-08T06:40:36.957Z,97.29
2018-02-08T06:41:36.857Z,97.67
2018-02-08T06:42:36.865Z,97.19
2018-02-08T06:43:36.787Z,97.00
2018-02-08T06:44:36.779Z,96.91
2018-02-08T06:45:36.707Z,96.91
2018-02-08T06:46:36.792Z,97.29
2018-02-08T06:47:36.642Z,97.14
2018-02-08T06:48:36.701Z,97.29
2018-02-08T06:49:36.577Z,97.67
2018-02-08T06:50:36.636Z,97.48
2018-02-08T06:51:36.505Z,97.05
2018-02-08T06:52:36.551Z,96.58
2018-02-08T06:53:36.439Z,96.53
2018-02-08T06:54:36.430Z,95.97
2018-02-08T06:55:36.376Z,96.53
2018-02-08T06:56:36.450Z,96.53
2018-02-08T06:57:36.303Z,96.25
2018-02-08T06:58:36.356Z,96.72
2018-02-08T06:59:36.227Z,96.53
2018-02-08T07:00:36.263Z,96.34
2018-02-08T07:01:36.158Z,96.25
2018-02-08T07:02:36.230Z,96.63
2018-02-08T07:03:36.100Z,96.53
2018-02-08T07:04:36.083Z,96.63
2018-02-08T07:05:36.020Z,96.25
2018-02-08T07:06:36.099Z,96.15
2018-02-08T07:07:35.951Z,96.25
2018-02-08T07:08:36.008Z,96.34
2018-02-08T07:09:35.876Z,96.06
2018-02-08T07:10:35.916Z,96.44
2018-02-08T07:11:35.817Z,96.81
2018-02-08T07:12:35.826Z,96.34
2018-02-08T07:13:35.747Z,96.06
2018-02-08T07:14:35.736Z,96.15
2018-02-08T07:15:35.676Z,96.15
2018-02-08T07:16:35.748Z,96.63
2018-02-08T07:17:35.602Z,96.63
2018-02-08T07:18:35.659Z,96.34
2018-02-08T07:19:35.536Z,96.63
2018-02-08T07:20:35.568Z,96.53
2018-02-08T07:21:35.465Z,96.53
2018-02-08T07:22:35.479Z,96.72
2018-02-08T07:23:35.402Z,96.44
2018-02-08T07:24:35.387Z,96.63
2018-02-08T07:25:35.326Z,96.81
2018-02-08T07:26:35.400Z,96.81
2018-02-08T07:27:35.258Z,97.10
2018-02-08T07:28:35.312Z,97.10
2018-02-08T07:29:35.191Z,96.81
2018-02-08T07:30:35.221Z,96.72
2018-02-08T07:31:35.121Z,96.25
2018-02-08T07:32:35.132Z,96.06
2018-02-08T07:33:35.049Z,96.34
2018-02-08T07:34:35.041Z,96.63
2018-02-08T07:35:35.018Z,96.15
2018-02-08T07:36:35.054Z,96.06
2018-02-08T07:37:34.952Z,96.44
2018-02-08T07:38:34.965Z,96.06
2018-02-08T07:39:34.842Z,96.44
2018-02-08T07:40:34.873Z,96.25
2018-02-08T07:41:34.767Z,96.25
2018-02-08T07:42:34.784Z,96.15
2018-02-08T07:43:34.706Z,96.06
2018-02-08T07:44:34.694Z,95.87
2018-02-08T07:45:34.642Z,96.06
2018-02-08T07:46:34.707Z,95.68
2018-02-08T07:47:34.571Z,95.78
2018-02-08T07:48:34.619Z,95.68
2018-02-08T07:49:34.500Z,95.68
2018-02-08T07:50:34.527Z,96.06
2018-02-08T07:51:34.431Z,96.15
2018-02-08T07:52:34.438Z,96.34
2018-02-08T07:53:34.364Z,96.15
2018-02-08T07:54:34.347Z,95.68
2018-02-08T07:55:34.294Z,95.68
2018-02-08T07:56:34.361Z,95.59
2018-02-08T07:57:34.229Z,96.25
2018-02-08T07:58:34.272Z,96.25
2018-02-08T07:59:34.159Z,96.15
2018-02-08T08:00:34.183Z,96.06
2018-02-08T08:01:34.087Z,95.68
2018-02-08T08:02:34.090Z,95.59
2018-02-08T08:03:34.023Z,95.50
2018-02-08T08:04:34.104Z,94.93
2018-02-08T08:05:33.953Z,94.74
2018-02-08T08:06:34.012Z,94.74
2018-02-08T08:07:33.885Z,95.12
2018-02-08T08:08:33.925Z,94.89
2018-02-08T08:09:33.819Z,94.89
2018-02-08T08:10:33.835Z,95.36
2018-02-08T08:11:33.748Z,95.26
2018-02-08T08:12:33.744Z,94.98
2018-02-08T08:13:33.686Z,94.79
2018-02-08T08:14:33.757Z,94.79
2018-02-08T08:15:33.613Z,95.36
2018-02-08T08:16:33.665Z,95.07
2018-02-08T08:17:33.546Z,94.98
2018-02-08T08:18:33.576Z,94.98
2018-02-08T08:19:33.480Z,94.98
2018-02-08T08:20:33.493Z,94.89
2018-02-08T08:21:33.408Z,94.79
2018-02-08T08:22:33.397Z,94.98
2018-02-08T08:23:33.342Z,95.17
2018-02-08T08:24:33.409Z,95.17
2018-02-08T08:25:33.276Z,94.60
2018-02-08T08:26:33.320Z,94.22
2018-02-08T08:27:33.205Z,94.60
2018-02-08T08:28:33.234Z,94.60
2018-02-08T08:29:33.138Z,94.41
2018-02-08T08:30:33.139Z,95.07
2018-02-08T08:31:33.068Z,95.07
2018-02-08T08:32:33.049Z,94.41
2018-02-08T08:33:33.004Z,94.41
2018-02-08T08:34:33.062Z,94.13
2018-02-08T08:35:32.937Z,94.13
2018-02-08T08:36:32.975Z,94.13
2018-02-08T08:37:32.869Z,94.22
2018-02-08T08:38:32.884Z,94.22
2018-02-08T08:39:32.802Z,94.13
2018-02-08T08:40:32.794Z,94.22
2018-02-08T08:41:32.730Z,93.94
2018-02-08T08:42:32.806Z,93.84
2018-02-08T08:43:32.665Z,94.22
2018-02-08T08:44:32.736Z,94.32
2018-02-08T08:45:32.597Z,94.13
2018-02-08T08:46:32.627Z,94.22
2018-02-08T08:47:32.527Z,94.41
2018-02-08T08:48:32.535Z,93.94
2018-02-08T08:49:32.461Z,94.60
2018-02-08T08:50:32.448Z,94.79
2018-02-08T08:51:32.393Z,94.60
2018-02-08T08:52:32.458Z,94.79
2018-02-08T08:53:32.322Z,95.26
2018-02-08T08:54:32.367Z,95.36
2018-02-08T08:55:32.259Z,94.98
2018-02-08T08:56:32.278Z,95.17
2018-02-08T08:57:32.192Z,94.89
2018-02-08T08:58:32.190Z,94.79
2018-02-08T08:59:32.123Z,94.89
2018-02-08T09:00:32.201Z,94.70
2018-02-08T09:01:32.058Z,95.17
2018-02-08T09:02:32.111Z,95.26
2018-02-08T09:03:31.987Z,94.98
2018-02-08T09:04:32.020Z,94.79
2018-02-08T09:05:31.922Z,94.51
2018-02-08T09:06:31.930Z,93.94
2018-02-08T09:07:31.854Z,94.41
2018-02-08T09:08:31.840Z,94.22
2018-02-08T09:09:31.787Z,93.75
2018-02-08T09:10:31.853Z,94.13
2018-02-08T09:11:31.719Z,93.66
2018-02-08T09:12:31.765Z,93.75
2018-02-08T09:13:31.650Z,93.75
2018-02-08T09:14:31.673Z,93.66
2018-02-08T09:15:31.584Z,94.37
2018-02-08T09:16:31.582Z,93.99
2018-02-08T09:17:31.517Z,94.37
2018-02-08T09:18:31.596Z,94.46
2018-02-08T09:19:31.450Z,94.37
2018-02-08T09:20:31.505Z,93.61
2018-02-08T09:21:31.382Z,93.23
2018-02-08T09:22:31.353Z,92.85
2018-02-08T09:23:31.320Z,91.63
2018-02-08T09:24:31.327Z,90.77
2018-02-08T09:25:31.250Z,90.40
2018-02-08T09:26:31.236Z,90.21
2018-02-08T09:27:31.181Z,89.64
2018-02-08T09:28:31.250Z,89.87
2018-02-08T09:29:31.116Z,88.65
2018-02-08T09:30:31.157Z,87.18
2018-02-08T09:31:31.050Z,83.82
2018-02-08T09:32:31.069Z,80.58
2018-02-08T09:33:30.988Z,77.97
2018-02-08T09:34:30.979Z,75.93
2018-02-08T09:35:30.921Z,73.31
2018-02-08T09:36:31.001Z,71.73
2018-02-08T09:37:30.859Z,68.73
2018-02-08T09:38:30.901Z,67.31
2018-02-08T09:39:30.823Z,64.78
2018-02-08T09:40:30.783Z,63.67
2018-02-08T09:41:30.747Z,62.72
2018-02-08T09:42:30.823Z,61.42
2018-02-08T09:43:30.694Z,58.28
2018-02-08T09:44:30.735Z,56.57
2018-02-08T09:45:30.640Z,55.93
2018-02-08T09:46:30.694Z,55.93
2018-02-08T09:47:30.592Z,54.82
2018-02-08T09:48:30.582Z,53.30
2018-02-08T09:49:31.025Z,52.15
2018-02-08T09:50:30.558Z,51.87
2018-02-08T09:51:30.499Z,51.99
2018-02-08T09:52:30.562Z,50.06
2018-02-08T09:53:30.456Z,50.85
2018-02-08T09:54:30.473Z,49.71
2018-02-08T09:55:30.415Z,48.47
2018-02-08T09:56:30.396Z,48.94
2018-02-08T09:57:30.392Z,48.97
2018-02-08T09:58:30.351Z,47.16
2018-02-08T09:59:30.403Z,46.78
2018-02-08T10:00:30.311Z,45.44
2018-02-08T10:01:30.316Z,46.70
2018-02-08T10:02:30.276Z,46.13
2018-02-08T10:03:30.330Z,45.65
2018-02-08T10:04:30.237Z,45.28
2018-02-08T10:05:30.240Z,45.65
2018-02-08T10:06:30.204Z,44.89
2018-02-08T10:07:30.256Z,43.65
2018-02-08T10:08:30.167Z,42.91
2018-02-08T10:09:30.165Z,42.34
2018-02-08T10:10:30.132Z,41.48
2018-02-08T10:11:30.181Z,41.50
2018-02-08T10:12:30.148Z,41.88
2018-02-08T10:13:30.195Z,41.98
2018-02-08T10:14:30.064Z,41.69
2018-02-08T10:15:30.105Z,40.36
2018-02-08T10:16:30.031Z,39.00
2018-02-08T10:17:30.120Z,40.44
2018-02-08T10:18:30.005Z,39.36
2018-02-08T10:19:30.032Z,41.36
2018-02-08T10:20:29.969Z,41.58
2018-02-08T10:21:30.046Z,42.05
2018-02-08T10:22:29.937Z,42.17
2018-02-08T10:23:29.958Z,41.88
2018-02-08T10:24:29.908Z,42.10
2018-02-08T10:25:29.970Z,40.66
2018-02-08T10:26:29.877Z,39.02
2018-02-08T10:27:29.883Z,40.00
2018-02-08T10:28:29.848Z,40.09
2018-02-08T10:29:29.897Z,40.49
2018-02-08T10:30:29.817Z,40.01
2018-02-08T10:31:29.810Z,38.30
2018-02-08T10:32:29.789Z,37.74
2018-02-08T10:33:29.822Z,36.96
2018-02-08T10:34:29.761Z,37.34
2018-02-08T10:35:29.836Z,37.13
2018-02-08T10:36:29.731Z,37.68
2018-02-08T10:37:29.750Z,39.02
2018-02-08T10:38:29.735Z,38.95
2018-02-08T10:39:29.761Z,37.61
2018-02-08T10:40:29.678Z,37.80
2018-02-08T10:41:29.776Z,38.20
2018-02-08T10:42:29.654Z,37.51
2018-02-08T10:43:29.687Z,38.10
2018-02-08T10:44:29.624Z,37.84
2018-02-08T10:45:29.701Z,37.15
2018-02-08T10:46:29.596Z,37.17
2018-02-08T10:47:29.610Z,37.09
2018-02-08T10:48:29.572Z,35.85
2018-02-08T10:49:29.626Z,35.57
2018-02-08T10:50:29.543Z,34.80
2018-02-08T10:51:29.636Z,34.51
2018-02-08T10:52:29.519Z,34.72
2018-02-08T10:53:29.547Z,34.14
2018-02-08T10:54:29.493Z,33.94
2018-02-08T10:55:29.562Z,33.00
2018-02-08T10:56:29.472Z,33.48
2018-02-08T10:57:29.474Z,32.34
2018-02-08T10:58:29.441Z,32.14
2018-02-08T10:59:29.492Z,32.25
2018-02-08T11:00:29.416Z,32.15
2018-02-08T11:01:29.502Z,32.54
2018-02-08T11:02:29.391Z,32.34
2018-02-08T11:03:29.413Z,32.46
2018-02-08T11:04:29.369Z,31.96
2018-02-08T11:05:29.428Z,32.15
2018-02-08T11:06:29.351Z,32.25
2018-02-08T11:07:29.441Z,31.95
2018-02-08T11:08:29.324Z,32.50
2018-02-08T11:09:29.353Z,33.19
2018-02-08T11:10:29.292Z,33.09
2018-02-08T11:11:29.366Z,33.48
2018-02-08T11:12:29.275Z,32.81
2018-02-08T11:13:29.278Z,33.20
2018-02-08T11:14:29.253Z,33.59
2018-02-08T11:15:29.290Z,32.63
2018-02-08T11:16:29.226Z,32.42
2018-02-08T11:17:29.307Z,33.20
2018-02-08T11:18:29.208Z,33.40
2018-02-08T11:19:29.216Z,32.92
2018-02-08T11:20:29.181Z,32.34
2018-02-08T11:21:29.237Z,32.71
2018-02-08T11:22:29.159Z,33.19
2018-02-08T11:23:29.245Z,33.48
2018-02-08T11:24:29.133Z,33.48
2018-02-08T11:25:29.158Z,33.48
2018-02-08T11:26:29.109Z,33.86
2018-02-08T11:27:29.171Z,34.53
2018-02-08T11:28:29.084Z,34.14
2018-02-08T11:29:29.185Z,33.67
2018-02-08T11:30:29.063Z,33.38
2018-02-08T11:31:29.096Z,34.14
2018-02-08T11:32:29.038Z,35.00
2018-02-08T11:33:29.110Z,34.22
2018-02-08T11:34:29.021Z,33.65
2018-02-08T11:35:29.021Z,35.08
2018-02-08T11:36:28.993Z,35.18
2018-02-08T11:37:29.035Z,35.18
2018-02-08T11:38:28.970Z,34.89
2018-02-08T11:39:29.048Z,35.28
2018-02-08T11:40:28.948Z,34.99
2018-02-08T11:41:30.010Z,34.32
2018-02-08T11:42:28.931Z,35.47
2018-02-08T11:43:28.974Z,36.80
2018-02-08T11:44:28.903Z,36.71
2018-02-08T11:45:28.986Z,35.94
2018-02-08T11:46:28.879Z,34.32
2018-02-08T11:47:28.900Z,34.88
2018-02-08T11:48:28.857Z,35.64
2018-02-08T11:49:28.915Z,36.31
2018-02-08T11:50:28.835Z,36.02
2018-02-08T11:51:28.928Z,36.41
2018-02-08T11:52:28.811Z,36.41
2018-02-08T11:53:28.838Z,35.72
2018-02-08T11:54:28.788Z,36.66
2018-02-08T11:55:28.799Z,37.51
2018-02-08T11:56:28.860Z,37.23
2018-02-08T11:57:28.755Z,37.88
2018-02-08T11:58:28.876Z,38.83
2018-02-08T11:59:28.727Z,39.19
2018-02-08T12:00:28.718Z,39.17
2018-02-08T12:01:28.791Z,40.58
2018-02-08T12:02:28.691Z,41.80
2018-02-08T12:03:28.682Z,42.76
2018-02-08T12:04:28.664Z,41.99
2018-02-08T12:05:28.655Z,41.89
2018-02-08T12:06:28.753Z,42.56
2018-02-08T12:07:28.624Z,43.71
2018-02-08T12:08:28.614Z,43.90
2018-02-08T12:09:28.594Z,43.90
2018-02-08T12:10:28.577Z,44.56
2018-02-08T12:11:28.561Z,44.09
2018-02-08T12:12:28.587Z,45.04
2018-02-08T12:13:28.530Z,44.49
2018-02-08T12:14:28.603Z,42.58
2018-02-08T12:15:28.500Z,42.94
2018-02-08T12:16:28.508Z,42.66
2018-02-08T12:17:28.472Z,43.49
2018-02-08T12:18:28.522Z,43.59
2018-02-08T12:19:28.437Z,45.59
2018-02-08T12:20:28.534Z,46.73
2018-02-08T12:21:28.406Z,46.35
2018-02-08T12:22:28.466Z,46.73
2018-02-08T12:23:28.374Z,45.32
2018-02-08T12:24:28.449Z,44.18
2018-02-08T12:25:28.345Z,44.18
2018-02-08T12:26:28.350Z,43.90
2018-02-08T12:27:28.309Z,44.37
2018-02-08T12:28:28.365Z,44.20
2018-02-08T12:29:28.280Z,44.87
2018-02-08T12:30:28.276Z,43.94
2018-02-08T12:31:28.248Z,43.84
2018-02-08T12:32:28.290Z,41.72
2018-02-08T12:33:28.219Z,42.76
2018-02-08T12:34:28.307Z,43.91
2018-02-08T12:35:28.187Z,42.18
2018-02-08T12:36:28.171Z,44.01
2018-02-08T12:37:28.156Z,42.87
2018-02-08T12:38:28.230Z,42.11
2018-02-08T12:39:28.132Z,43.44
2018-02-08T12:40:28.141Z,43.94
2018-02-08T12:41:28.098Z,43.27
2018-02-08T12:42:28.156Z,42.51
2018-02-08T12:43:28.070Z,42.99
2018-02-08T12:44:28.068Z,44.42
2018-02-08T12:45:28.041Z,43.96
2018-02-08T12:46:28.087Z,44.25
2018-02-08T12:47:28.008Z,42.91
2018-02-08T12:48:28.092Z,41.65
2018-02-08T12:49:27.981Z,42.32
2018-02-08T12:50:28.005Z,43.27
2018-02-08T12:51:27.953Z,43.27
2018-02-08T12:52:28.017Z,43.46